Rogers, CT (06263)

12:06 PM EDT on July 03, 2015 (GMT -0400)
KCTDANIE4 | | Change Station
CLOSE
Current Station
Personal Weather Station
Location: Danielson, CT
Elevation: 236 ft
Nearby Weather Stations

Elev 236 ft 41.81 °N, 71.89 °W | Updated 6 minutes ago

Clear
Clear
79.9 °F
Feels Like 80 °F
N
0.0
Wind Variable Wind from NW
Gusts 0.0 mph

Today
High -- | Low -- °F
--% Chance of Precip.
Yesterday
High -- | Low -- °F
Precip. -- in
5:17 AM 8:26 PM
Full, 97% visible
Pressure 29.97 in
Visibility 10.0 miles
Clouds Clear
Heat Index 80 °F
Dew Point 57 °F
Humidity 45%
Rainfall 0.00 in
Snow Depth Not available.
UV 11 out of 12
Pollen 4.20 out of 12
Air Quality Not available.
Flu Activity Not available.
METAR KIJD 031552Z AUTO 25005KT 10SM CLR 23/09 A2998 RMK AO2 SLP149 T02330094

More Conditions Fewer Conditions

Pressure 29.97 in
Visibility 10.0 miles
Clouds Clear
Heat Index 80 °F
Dew Point 57 °F
Humidity 45%
Rainfall 0.00 in
Snow Depth Not available.
UV 11 out of 12
Pollen 4.20 out of 12
Air Quality Not available.
Flu Activity Not available.
METAR KIJD 031552Z AUTO 25005KT 10SM CLR 23/09 A2998 RMK AO2 SLP149 T02330094

More Conditions Fewer Conditions

10-Day Weather Forecast

×

Almanac

Astronomy

Jul. 03, 2015 Rise Set
Actual Time
Civil Twilight
Nautical Twilight
Astronomical Twilight
Moon
Length of Visible Light
Length of Day
Tomorrow will be .
, % of the Moon is Illuminated

Today's Extremes

State Highs State Lows

Community

WunderPhotos

Upload Photos

1,834,681 photos uploaded!

WunderBlogs® & News

Nearby

Air Quality

  Air Quality AQ Index Pollutant
Not available.

Snow Depth

Station Depth Elevation

Earthquake Activity

City Distance Mag. Time & Date
Minimum magnitude displayed is 2.5.

Coastal Water Temperatures

Place Temperature

Stations

Nearby Weather Stations

Station Location Temp. Windchill Dew Point Humidity Wind Precip. Elev Updated Type